LPHR

Details ICAO LPHR (HOR)
Name HORTA
Region Portugal
Timezone Atlantic/Azores (UTC-1.0)
Plans Departing 52
Arriving 63
Stats Elevation 118 ft / 36 m (AMSL)
Location 38.519898° -28.715795°
Runways 1
Magnetic Variation 9.509° W
Sunrise 2017-12-18 09:08:31 UTC / 2017-12-18 08:08:31 Local
Sunset 2017-12-18 18:37:13 UTC / 2017-12-18 17:37:13 Local
Advertisement - Login to hide

Runways

ID Width Length Bearing (true) Bearing (mag) Surface Threshold Offset Overrun Length
10 148 ft / 45 m 4,990 ft / 1,521 m 89.70° 99.21° Asphalt 0 ft / 0 m 180 ft / 55 m
28 148 ft / 45 m 4,990 ft / 1,521 m 269.71° 279.22° Asphalt 0 ft / 0 m 180 ft / 55 m

Map

Weather


0- 5 10 15 20 25 30 35+ Temperature / ° C

Clouds and Precipitation
Forecast for 2017-12-18 18:00 UTC. Updated 2 hours ago

Ground ~20,000 ft ~40,000 ft Winds

METAR

LPHR 181830Z 18012KT 9999 FEW014 SCT035 19/17 Q1023

TAF

Not found

Frequencies

Tower 118.00 MHz TWR
Approach 118.00 MHz APP
Approach 119.70 MHz APP
Warning: Do not use this data for real-world aviation or navigation. No guarantee of current accuracy is given.